createdAt,value
2018-12-27T00:02:17.385Z,6.2
2018-12-27T00:05:17.143Z,6
2018-12-27T00:08:17.168Z,5.9
2018-12-27T00:11:17.453Z,5.9
2018-12-27T00:14:17.194Z,5.9
2018-12-27T00:17:17.349Z,6
2018-12-27T00:20:18.210Z,6.1
2018-12-27T00:23:17.322Z,6.1
2018-12-27T00:26:17.308Z,6.2
2018-12-27T00:29:17.534Z,6.2
2018-12-27T00:32:17.453Z,6.1
2018-12-27T00:35:17.638Z,6.3
2018-12-27T00:38:17.835Z,6.3
2018-12-27T00:41:17.046Z,6.3
2018-12-27T00:44:17.827Z,6.3
2018-12-27T00:47:17.638Z,6.4
2018-12-27T00:50:17.355Z,6.6
2018-12-27T00:53:17.497Z,6.3
2018-12-27T00:56:17.661Z,6.2
2018-12-27T00:59:17.432Z,6.4
2018-12-27T01:02:17.338Z,6.2
2018-12-27T01:05:17.392Z,6.6
2018-12-27T01:08:16.960Z,6.4
2018-12-27T01:11:17.045Z,6.2
2018-12-27T01:14:17.106Z,6.2
2018-12-27T01:17:17.216Z,6.2
2018-12-27T01:20:17.484Z,6.2
2018-12-27T01:23:18.060Z,6.2
2018-12-27T01:26:17.159Z,6.5
2018-12-27T01:29:17.453Z,6.5
2018-12-27T01:32:17.466Z,6.5
2018-12-27T01:35:17.213Z,6.4
2018-12-27T01:38:17.119Z,6.4
2018-12-27T01:41:17.074Z,6.3
2018-12-27T01:44:17.119Z,6.4
2018-12-27T01:47:17.244Z,6.3
2018-12-27T01:50:17.244Z,6.5
2018-12-27T01:53:17.259Z,6.5
2018-12-27T01:56:17.102Z,6.3
2018-12-27T01:59:17.353Z,6.2
2018-12-27T02:02:17.212Z,6.3
2018-12-27T02:05:17.514Z,6.2
2018-12-27T02:08:17.534Z,6.2
2018-12-27T02:11:17.649Z,6.4
2018-12-27T02:14:17.807Z,6.5
2018-12-27T02:17:17.077Z,6.5
2018-12-27T02:20:17.510Z,6.4
2018-12-27T02:23:17.622Z,6.3
2018-12-27T02:26:17.008Z,6.3
2018-12-27T02:29:17.482Z,6.3
2018-12-27T02:32:17.140Z,6.3
2018-12-27T02:35:17.060Z,6.5
2018-12-27T02:38:24.095Z,6.5
2018-12-27T02:41:24.100Z,6.6
2018-12-27T02:44:23.919Z,6.5
2018-12-27T02:47:24.447Z,6.5
2018-12-27T02:50:24.053Z,6.3
2018-12-27T02:53:24.338Z,6.2
2018-12-27T02:56:23.920Z,6.4
2018-12-27T02:59:24.209Z,6.5
2018-12-27T03:02:23.923Z,6.5
2018-12-27T03:05:23.952Z,6.5
2018-12-27T03:08:23.930Z,6.5
2018-12-27T03:11:23.904Z,6.5
2018-12-27T03:14:23.991Z,6.4
2018-12-27T03:17:23.898Z,6.5
2018-12-27T03:20:23.863Z,6.4
2018-12-27T03:23:24.191Z,6.4
2018-12-27T03:26:24.049Z,6.7
2018-12-27T03:29:24.105Z,6.6
2018-12-27T03:32:24.006Z,6.6
2018-12-27T03:35:24.061Z,6.6
2018-12-27T03:38:23.924Z,6.6
2018-12-27T03:41:24.152Z,6.7
2018-12-27T03:44:24.078Z,6.7
2018-12-27T03:47:24.841Z,6.7
2018-12-27T03:50:24.393Z,6.7
2018-12-27T03:53:23.903Z,6.9
2018-12-27T03:56:24.013Z,6.8
2018-12-27T03:59:23.903Z,6.8
2018-12-27T04:02:24.156Z,7
2018-12-27T04:05:23.906Z,6.9
2018-12-27T04:08:24.238Z,7
2018-12-27T04:11:24.427Z,7.3
2018-12-27T04:14:24.864Z,7.1
2018-12-27T04:17:24.281Z,7.1
2018-12-27T04:20:24.276Z,7.6
2018-12-27T04:23:24.339Z,7.5
2018-12-27T04:26:24.027Z,7.5
2018-12-27T04:29:23.896Z,7.2
2018-12-27T04:32:23.854Z,7.4
2018-12-27T04:35:24.132Z,7.6
2018-12-27T04:38:24.005Z,7.8
2018-12-27T04:41:24.216Z,7.8
2018-12-27T04:44:24.365Z,7.5
2018-12-27T04:47:24.205Z,7.4
2018-12-27T04:50:23.987Z,7.4
2018-12-27T04:53:24.135Z,7.4
2018-12-27T04:56:23.849Z,7.1
2018-12-27T04:59:24.034Z,7
2018-12-27T05:02:24.062Z,7
2018-12-27T05:05:24.417Z,7
2018-12-27T05:08:24.255Z,7
2018-12-27T05:11:23.947Z,7
2018-12-27T05:14:23.944Z,7
2018-12-27T05:17:24.464Z,6.8
2018-12-27T05:20:24.019Z,6.6
2018-12-27T05:23:23.926Z,6.6
2018-12-27T05:26:23.847Z,6.5
2018-12-27T05:29:23.921Z,6.4
2018-12-27T05:32:23.983Z,6.2
2018-12-27T05:35:23.940Z,6.4
2018-12-27T05:38:24.149Z,6.3
2018-12-27T05:41:24.370Z,6.3
2018-12-27T05:44:23.989Z,6.2
2018-12-27T05:47:23.853Z,6.1
2018-12-27T05:50:24.134Z,6.1
2018-12-27T05:53:24.141Z,6.2
2018-12-27T05:56:23.827Z,6.1
2018-12-27T05:59:24.082Z,6.4
2018-12-27T06:02:24.004Z,6.2
2018-12-27T06:05:24.341Z,6
2018-12-27T06:08:23.836Z,6
2018-12-27T06:11:24.741Z,6
2018-12-27T06:14:24.072Z,6
2018-12-27T06:17:24.105Z,5.8
2018-12-27T06:20:23.845Z,6.1
2018-12-27T06:23:23.930Z,6.1
2018-12-27T06:26:24.081Z,6.1
2018-12-27T06:29:23.960Z,6
2018-12-27T06:32:23.864Z,5.9
2018-12-27T06:35:23.806Z,6.1
2018-12-27T06:38:23.966Z,6
2018-12-27T06:41:23.987Z,5.8
2018-12-27T06:44:23.814Z,6
2018-12-27T06:47:23.992Z,6.1
2018-12-27T06:50:23.963Z,6.1
2018-12-27T06:53:23.814Z,5.9
2018-12-27T06:56:24.055Z,6.1
2018-12-27T06:59:24.026Z,5.9
2018-12-27T07:02:23.802Z,6
2018-12-27T07:05:23.888Z,6
2018-12-27T07:08:24.285Z,6.1
2018-12-27T07:11:23.777Z,6.2
2018-12-27T07:14:24.192Z,6.1
2018-12-27T07:17:23.922Z,6.1
2018-12-27T07:20:23.831Z,6.1
2018-12-27T07:23:23.803Z,6.2
2018-12-27T07:26:23.801Z,6.1
2018-12-27T07:29:24.303Z,6.1
2018-12-27T07:32:23.923Z,6
2018-12-27T07:35:24.090Z,6
2018-12-27T07:38:23.908Z,6.1
2018-12-27T07:41:24.025Z,6.2
2018-12-27T07:44:24.142Z,6.1
2018-12-27T07:47:24.234Z,6
2018-12-27T07:50:23.983Z,6
2018-12-27T07:53:23.954Z,6.1
2018-12-27T07:56:23.673Z,6.1
2018-12-27T07:59:23.869Z,6
2018-12-27T08:02:24.716Z,6
2018-12-27T08:05:23.835Z,6.1
2018-12-27T08:08:23.798Z,6
2018-12-27T08:11:23.921Z,5.8
2018-12-27T08:14:24.331Z,5.9
2018-12-27T08:17:23.872Z,5.9
2018-12-27T08:20:23.904Z,6
2018-12-27T08:23:23.992Z,5.9
2018-12-27T08:26:23.859Z,5.7
2018-12-27T08:29:24.057Z,5.7
2018-12-27T08:32:23.777Z,5.8
2018-12-27T08:35:24.064Z,5.7
2018-12-27T08:38:23.774Z,5.8
2018-12-27T08:41:24.089Z,5.7
2018-12-27T08:44:24.157Z,5.9
2018-12-27T08:47:23.767Z,5.8
2018-12-27T08:50:23.899Z,7.3
2018-12-27T08:53:23.900Z,7.5
2018-12-27T08:56:24.109Z,7.3
2018-12-27T08:59:24.053Z,7
2018-12-27T09:02:23.909Z,6.5
2018-12-27T09:05:24.128Z,6.3
2018-12-27T09:08:23.936Z,6.4
2018-12-27T09:11:23.784Z,6.2
2018-12-27T09:14:24.019Z,6.1
2018-12-27T09:17:24.367Z,5.9
2018-12-27T09:20:23.952Z,6.1
2018-12-27T09:23:24.113Z,6.1
2018-12-27T09:26:24.506Z,5.9
2018-12-27T09:29:23.949Z,5.7
2018-12-27T09:32:24.189Z,5.8
2018-12-27T09:35:26.917Z,5.8
2018-12-27T09:38:24.334Z,5.8
2018-12-27T09:41:23.751Z,6.1
2018-12-27T09:44:23.844Z,6.5
2018-12-27T09:47:23.797Z,6.9
2018-12-27T09:50:23.878Z,7.2
2018-12-27T09:53:23.755Z,7
2018-12-27T09:56:23.970Z,8.6
2018-12-27T09:59:23.884Z,8.3
2018-12-27T10:02:23.733Z,8.4
2018-12-27T10:05:23.872Z,7.6
2018-12-27T10:08:23.946Z,7.3
2018-12-27T10:11:24.234Z,14
2018-12-27T10:14:23.773Z,12.3
2018-12-27T10:17:23.882Z,11.7
2018-12-27T10:20:23.905Z,9.5
2018-12-27T10:23:24.073Z,12.5
2018-12-27T10:26:24.048Z,11.6
2018-12-27T10:29:23.979Z,11
2018-12-27T10:36:15.990Z,11.3
2018-12-27T10:39:16.344Z,9.1
2018-12-27T10:42:16.684Z,9.1
2018-12-27T10:45:15.944Z,9.3
2018-12-27T10:48:16.438Z,9.3
2018-12-27T10:51:16.257Z,9.1
2018-12-27T10:54:15.843Z,8.1
2018-12-27T10:57:15.984Z,7.3
2018-12-27T11:00:16.219Z,6.8
2018-12-27T11:03:16.115Z,7.8
2018-12-27T11:06:15.774Z,7.1
2018-12-27T11:09:15.785Z,7.2
2018-12-27T11:12:16.022Z,6.8
2018-12-27T11:15:16.139Z,6
2018-12-27T11:25:16.028Z,6.6
2018-12-27T11:36:40.811Z,7.5
2018-12-27T11:42:37.165Z,5.3
2018-12-27T11:45:36.694Z,5.5
2018-12-27T11:54:06.970Z,5.8
2018-12-27T11:57:07.038Z,5.9
2018-12-27T12:00:07.232Z,5.9
2018-12-27T12:03:07.204Z,5.9
2018-12-27T12:06:07.327Z,5.5
2018-12-27T12:09:07.199Z,5.4
2018-12-27T12:12:07.260Z,5.3
2018-12-27T12:15:07.630Z,5.2
2018-12-27T12:18:06.731Z,5.6
2018-12-27T12:21:07.437Z,5.8
2018-12-27T12:24:06.948Z,5.6
2018-12-27T12:27:06.877Z,6.3
2018-12-27T12:30:06.629Z,5.5
2018-12-27T12:33:07.204Z,5.2
2018-12-27T12:36:11.454Z,5.6
2018-12-27T12:39:07.000Z,5.4
2018-12-27T12:42:06.957Z,6.2
2018-12-27T12:45:06.702Z,7.7
2018-12-27T12:48:06.963Z,7.5
2018-12-27T12:51:07.007Z,6.7
2018-12-27T12:54:07.035Z,6.1
2018-12-27T12:57:07.044Z,6.7
2018-12-27T13:00:06.746Z,7.2
2018-12-27T13:03:07.312Z,6.2
2018-12-27T13:06:07.204Z,5.6
2018-12-27T13:09:06.869Z,5.6
2018-12-27T13:12:07.615Z,5.5
2018-12-27T13:15:07.090Z,5.4
2018-12-27T13:18:06.779Z,5.5
2018-12-27T13:21:07.108Z,5.4
2018-12-27T13:24:06.771Z,5.2
2018-12-27T13:27:06.838Z,5.5
2018-12-27T13:30:07.035Z,5.7
2018-12-27T13:33:07.062Z,5.4
2018-12-27T13:36:07.878Z,5.2
2018-12-27T13:39:07.232Z,5.2
2018-12-27T13:42:07.209Z,5.3
2018-12-27T13:45:06.934Z,5.5
2018-12-27T13:48:07.367Z,5.5
2018-12-27T13:51:06.977Z,5.6
2018-12-27T13:54:07.756Z,5.2
2018-12-27T13:57:07.367Z,5.5
2018-12-27T14:00:06.837Z,5.5
2018-12-27T14:03:06.987Z,5.3
2018-12-27T14:06:06.808Z,5.2
2018-12-27T14:09:07.425Z,5.2
2018-12-27T14:12:07.512Z,5.4
2018-12-27T14:15:07.033Z,5.6
2018-12-27T14:18:06.845Z,5.6
2018-12-27T14:21:06.844Z,5.5
2018-12-27T14:24:06.904Z,5.5
2018-12-27T14:27:07.268Z,6.5
2018-12-27T14:30:06.818Z,6.5
2018-12-27T14:33:06.901Z,6.9
2018-12-27T14:36:07.352Z,6.7
2018-12-27T14:39:06.981Z,6.5
2018-12-27T14:42:07.499Z,7
2018-12-27T14:45:06.992Z,6.3
2018-12-27T14:48:07.248Z,5.9
2018-12-27T14:51:07.588Z,6.1
2018-12-27T14:54:06.976Z,6.4
2018-12-27T14:57:06.927Z,6.3
2018-12-27T15:00:06.916Z,6.4
2018-12-27T15:03:07.109Z,5.9
2018-12-27T15:06:07.176Z,5.8
2018-12-27T15:09:06.910Z,6
2018-12-27T15:12:07.108Z,6.5
2018-12-27T15:15:07.066Z,6.2
2018-12-27T15:18:06.971Z,6
2018-12-27T15:21:07.266Z,8.5
2018-12-27T15:24:07.131Z,8
2018-12-27T15:27:07.002Z,8.7
2018-12-27T15:30:07.258Z,9.4
2018-12-27T15:33:06.846Z,8.8
2018-12-27T15:36:06.735Z,8.2
2018-12-27T15:39:07.324Z,8.2
2018-12-27T15:42:06.996Z,9.1
2018-12-27T15:45:06.674Z,7.9
2018-12-27T15:48:07.147Z,7.1
2018-12-27T15:51:07.286Z,7.3
2018-12-27T15:54:06.890Z,7
2018-12-27T15:57:08.123Z,6.8
2018-12-27T16:00:07.039Z,6.5
2018-12-27T16:03:07.060Z,6.5
2018-12-27T16:06:06.888Z,6.6
2018-12-27T16:09:06.863Z,6.6
2018-12-27T16:12:06.943Z,7.1
2018-12-27T16:15:07.130Z,6.9
2018-12-27T16:18:06.860Z,6.7
2018-12-27T16:21:07.003Z,6.9
2018-12-27T16:24:07.084Z,7
2018-12-27T16:27:08.832Z,8.2
2018-12-27T16:30:06.902Z,7.9
2018-12-27T16:33:06.935Z,7.2
2018-12-27T16:39:28.342Z,6.7
2018-12-27T16:42:28.900Z,8.3
2018-12-27T16:45:28.509Z,8.3
2018-12-27T16:48:28.582Z,8.3
2018-12-27T16:51:28.649Z,11.2
2018-12-27T16:54:28.198Z,11.8
2018-12-27T17:31:13.384Z,8.7
2018-12-27T17:34:13.476Z,9.2
2018-12-27T17:37:13.127Z,8.9
2018-12-27T17:40:13.338Z,9.3
2018-12-27T17:43:13.366Z,9.1
2018-12-27T17:46:13.282Z,9.5
2018-12-27T17:54:24.897Z,10.6
2018-12-27T17:57:24.833Z,10.5
2018-12-27T18:00:24.811Z,9.4
2018-12-27T18:05:00.975Z,8.7
2018-12-27T18:14:02.522Z,8.4
2018-12-27T18:17:01.648Z,8.8
2018-12-27T18:25:05.494Z,8.3
2018-12-27T18:28:05.970Z,9.1
2018-12-27T18:31:05.459Z,9.8
2018-12-27T18:34:05.282Z,9.1
2018-12-27T18:37:05.002Z,8.4
2018-12-27T18:40:05.749Z,8.7
2018-12-27T18:43:05.274Z,8.5
2018-12-27T18:50:01.458Z,11.1
2018-12-27T18:53:01.639Z,12.6
2018-12-27T18:56:01.072Z,11.6
2018-12-27T18:59:01.750Z,11.1
2018-12-27T19:02:01.909Z,10.6
2018-12-27T19:05:01.302Z,11.2
2018-12-27T19:08:01.057Z,10.4
2018-12-27T19:11:01.207Z,11
2018-12-27T19:14:01.174Z,10.8
2018-12-27T19:18:44.674Z,10.4
2018-12-27T19:21:45.223Z,10
2018-12-27T19:24:44.925Z,10.4
2018-12-27T19:27:45.141Z,10.6
2018-12-27T19:30:44.876Z,11.9
2018-12-27T19:33:45.338Z,12.4
2018-12-27T19:36:45.280Z,12.3
2018-12-27T19:39:45.086Z,10.9
2018-12-27T19:42:45.093Z,10.8
2018-12-27T19:45:45.492Z,11.8
2018-12-27T19:48:45.608Z,11.4
2018-12-27T19:51:45.216Z,10.8
2018-12-27T19:54:45.280Z,10.7
2018-12-27T19:57:45.270Z,10.9
2018-12-27T20:00:44.850Z,10.2
2018-12-27T20:03:44.989Z,9.7
2018-12-27T20:06:45.569Z,9.4
2018-12-27T20:09:44.973Z,9.5
2018-12-27T20:12:45.197Z,10.3
2018-12-27T20:15:45.351Z,10.5
2018-12-27T20:18:45.321Z,9.8
2018-12-27T20:21:45.027Z,9.7
2018-12-27T20:24:45.160Z,9.6
2018-12-27T20:27:44.995Z,9.6
2018-12-27T20:30:45.185Z,9.1
2018-12-27T20:33:45.090Z,9.2
2018-12-27T20:36:45.081Z,9.8
2018-12-27T20:41:47.687Z,9.9
2018-12-27T20:44:47.962Z,10.4
2018-12-27T20:47:47.985Z,10.3
2018-12-27T20:50:46.880Z,10.4
2018-12-27T20:53:47.097Z,10.8
2018-12-27T20:56:47.176Z,11.1
2018-12-27T20:59:47.106Z,11
2018-12-27T21:02:47.100Z,10.6
2018-12-27T21:05:47.216Z,11.5
2018-12-27T21:08:47.207Z,11.9
2018-12-27T21:11:47.101Z,11.5
2018-12-27T21:14:46.975Z,11.5
2018-12-27T21:17:47.217Z,11.6
2018-12-27T21:20:47.295Z,10.9
2018-12-27T21:25:40.263Z,11.4
2018-12-27T21:28:40.629Z,11.4
2018-12-27T21:31:40.423Z,11.2
2018-12-27T21:34:41.305Z,11.7
2018-12-27T21:37:40.880Z,11.2
2018-12-27T21:40:40.892Z,11
2018-12-27T21:43:40.344Z,11
2018-12-27T21:46:41.112Z,10.7
2018-12-27T21:49:40.491Z,10.7
2018-12-27T21:52:40.453Z,10.3
2018-12-27T21:55:40.807Z,10.6
2018-12-27T21:58:40.371Z,10.4
2018-12-27T22:01:40.653Z,10.1
2018-12-27T22:04:40.932Z,10.2
2018-12-27T22:07:40.473Z,10.2
2018-12-27T22:10:41.573Z,10
2018-12-27T22:13:40.521Z,10
2018-12-27T22:16:40.439Z,9.7
2018-12-27T22:19:41.064Z,10.2
2018-12-27T22:22:40.519Z,10
2018-12-27T22:25:40.348Z,9.8
2018-12-27T22:28:40.242Z,9.8
2018-12-27T22:31:40.516Z,9.8
2018-12-27T22:34:40.375Z,9.8
2018-12-27T22:37:40.454Z,9.6
2018-12-27T22:40:40.622Z,10
2018-12-27T22:43:40.314Z,9.7
2018-12-27T22:46:40.330Z,9.6
2018-12-27T22:49:40.673Z,9.5
2018-12-27T22:52:40.928Z,9.5
2018-12-27T22:55:40.846Z,9.6
2018-12-27T22:58:40.215Z,9.6
2018-12-27T23:01:41.016Z,9.6
2018-12-27T23:04:40.405Z,9.5
2018-12-27T23:07:40.386Z,9.2
2018-12-27T23:10:40.857Z,9.1
2018-12-27T23:13:40.713Z,9.2
2018-12-27T23:16:40.239Z,9.2
2018-12-27T23:19:40.412Z,9.1
2018-12-27T23:22:40.769Z,9
2018-12-27T23:25:40.859Z,9.3
2018-12-27T23:28:40.376Z,9.2
2018-12-27T23:31:40.203Z,9.3
2018-12-27T23:34:40.690Z,9.2
2018-12-27T23:37:40.417Z,9.2
2018-12-27T23:40:40.349Z,9.3
2018-12-27T23:43:40.902Z,8.9
2018-12-27T23:46:40.231Z,9.4
2018-12-27T23:49:40.319Z,8.9
2018-12-27T23:52:40.292Z,9
2018-12-27T23:55:40.974Z,9.1
2018-12-27T23:58:40.320Z,9
